Time;durP1;ratioP1;P1;durP2;ratioP2;P2;SDS_P1;SDS_P2;PMS_P1;PMS_P2;Temp;Humidity;BMP_temperature;BMP_pressure;BME280_temperature;BME280_humidity;BME280_pressure;Samples;Min_cycle;Max_cycle;Signal;HPM_P1;HPM_P2
2021/12/31 00:20:49;;;;;;;5.60;4.03;;;;;;;10.51;100.00;99183.25;8424253;28;20835;-70
2021/12/31 00:24:50;;;;;;;7.68;3.90;;;;;;;10.55;100.00;99178.81;8372468;28;20049;-70
2021/12/31 00:28:51;;;;;;;8.93;4.03;;;;;;;10.49;100.00;99185.44;8399398;28;20080;-72
2021/12/31 00:32:55;;;;;;;7.88;4.85;;;;;;;10.41;100.00;99188.88;8393754;28;20164;-72
2021/12/31 00:36:55;;;;;;;13.85;4.80;;;;;;;10.40;100.00;99192.69;8402114;28;20507;-70
2021/12/31 00:40:56;;;;;;;8.00;5.20;;;;;;;10.43;100.00;99197.44;8392267;28;20094;-71
2021/12/31 00:44:57;;;;;;;8.75;5.53;;;;;;;10.46;100.00;99196.84;8398895;28;20127;-71
2021/12/31 00:48:58;;;;;;;8.52;5.38;;;;;;;10.45;100.00;99195.25;8414950;28;20037;-71
2021/12/31 00:52:59;;;;;;;7.07;4.82;;;;;;;10.48;100.00;99194.63;8410921;28;20465;-72
2021/12/31 00:57:03;;;;;;;9.95;5.22;;;;;;;10.46;100.00;99191.47;8406603;28;20036;-71
2021/12/31 01:01:04;;;;;;;9.77;6.03;;;;;;;10.57;100.00;99186.63;8413655;28;20040;-72
2021/12/31 01:05:08;;;;;;;7.07;5.03;;;;;;;10.64;100.00;99191.56;8405281;28;20086;-71
2021/12/31 01:09:09;;;;;;;9.65;5.25;;;;;;;10.58;100.00;99194.38;8407750;28;20044;-70
2021/12/31 01:13:16;;;;;;;9.00;5.35;;;;;;;10.61;100.00;99198.41;8397617;28;20087;-70
2021/12/31 01:17:21;;;;;;;6.78;5.57;;;;;;;10.64;100.00;99202.38;8403156;28;20487;-70
2021/12/31 01:21:22;;;;;;;7.57;5.05;;;;;;;10.54;100.00;99204.22;8393647;28;20066;-71
2021/12/31 01:25:23;;;;;;;6.63;5.13;;;;;;;10.61;100.00;99205.69;8377318;28;20562;-71
2021/12/31 01:29:24;;;;;;;9.23;5.05;;;;;;;10.60;100.00;99207.59;8381108;28;20090;-71
2021/12/31 01:33:24;;;;;;;8.93;5.00;;;;;;;10.56;100.00;99212.81;8330327;28;20056;-70
2021/12/31 01:37:25;;;;;;;12.88;5.05;;;;;;;10.58;100.00;99210.59;8377077;28;20071;-70
2021/12/31 01:41:26;;;;;;;7.65;5.30;;;;;;;10.57;100.00;99214.38;8371663;28;20130;-70
2021/12/31 01:45:31;;;;;;;11.00;5.47;;;;;;;10.63;100.00;99206.19;8385410;28;20119;-71
2021/12/31 01:49:38;;;;;;;9.35;5.72;;;;;;;10.70;100.00;99201.16;8382934;28;20044;-71
2021/12/31 01:53:39;;;;;;;11.20;5.82;;;;;;;10.67;100.00;99217.97;8382524;28;20053;-71
2021/12/31 02:10:53;;;;;;;8.60;5.25;;;;;;;10.75;100.00;99230.75;8389008;27;21068;-69
2021/12/31 02:14:54;;;;;;;13.25;5.22;;;;;;;10.74;100.00;99226.44;8390832;28;20056;-69
2021/12/31 02:18:58;;;;;;;8.68;5.18;;;;;;;10.64;100.00;99223.97;8372052;28;20523;-70
2021/12/31 02:23:06;;;;;;;8.93;5.60;;;;;;;10.64;100.00;99234.78;8383611;28;20041;-70
2021/12/31 02:27:07;;;;;;;10.90;4.37;;;;;;;10.61;100.00;99230.00;8381220;28;20057;-69
2021/12/31 02:31:08;;;;;;;8.70;4.78;;;;;;;10.70;100.00;99228.97;8401472;28;20055;-70
2021/12/31 02:35:10;;;;;;;7.88;5.15;;;;;;;10.73;100.00;99227.56;8365147;28;20436;-71
2021/12/31 02:39:11;;;;;;;9.82;5.25;;;;;;;10.65;100.00;99226.38;8388856;28;20053;-69
2021/12/31 02:43:12;;;;;;;10.70;5.70;;;;;;;10.59;100.00;99233.81;8408510;28;20060;-69
2021/12/31 02:47:13;;;;;;;6.97;5.47;;;;;;;10.62;100.00;99231.59;8379880;28;20064;-70
2021/12/31 02:51:14;;;;;;;10.40;5.93;;;;;;;10.66;100.00;99227.19;8420814;28;20060;-70
2021/12/31 02:55:15;;;;;;;10.23;6.70;;;;;;;10.64;100.00;99219.38;8401264;28;20041;-70
2021/12/31 02:59:16;;;;;;;8.02;5.90;;;;;;;10.74;100.00;99218.34;8390922;28;20090;-70
2021/12/31 03:03:18;;;;;;;11.40;5.75;;;;;;;10.64;100.00;99223.97;8377624;28;20055;-70
2021/12/31 03:07:19;;;;;;;10.55;6.25;;;;;;;10.70;100.00;99222.75;8391841;28;20052;-69
2021/12/31 03:11:21;;;;;;;9.52;6.10;;;;;;;10.66;100.00;99221.78;8378985;28;20575;-70
2021/12/31 03:15:23;;;;;;;12.32;5.15;;;;;;;10.69;100.00;99226.56;8386072;28;20075;-70
2021/12/31 03:19:24;;;;;;;7.95;5.85;;;;;;;10.74;100.00;99223.72;8380066;28;20053;-70
2021/12/31 03:23:25;;;;;;;6.93;4.88;;;;;;;10.73;100.00;99227.56;8380262;28;20065;-69
2021/12/31 03:27:29;;;;;;;12.07;5.38;;;;;;;10.64;100.00;99222.06;8375643;28;20063;-70
2021/12/31 03:31:29;;;;;;;9.73;4.80;;;;;;;10.68;100.00;99214.19;8395389;28;20495;-71
2021/12/31 03:35:30;;;;;;;9.70;4.32;;;;;;;10.67;100.00;99223.38;8382289;28;20105;-71
2021/12/31 03:39:31;;;;;;;7.82;4.68;;;;;;;10.68;100.00;99219.59;8368031;28;20072;-70
2021/12/31 03:43:32;;;;;;;6.15;4.47;;;;;;;10.73;100.00;99219.47;8356247;28;20651;-71
2021/12/31 03:47:33;;;;;;;7.05;4.60;;;;;;;10.68;100.00;99208.78;8389505;28;20135;-70
2021/12/31 03:51:34;;;;;;;9.02;4.97;;;;;;;10.80;100.00;99217.09;8398002;28;20422;-69
2021/12/31 03:55:35;;;;;;;7.03;4.63;;;;;;;10.75;100.00;99219.94;8384024;28;20129;-70
2021/12/31 03:59:35;;;;;;;7.22;4.90;;;;;;;10.75;100.00;99225.34;8369011;28;20136;-70
2021/12/31 04:03:36;;;;;;;8.40;4.55;;;;;;;10.75;100.00;99219.94;8374109;28;20055;-71
2021/12/31 04:07:37;;;;;;;8.57;5.25;;;;;;;10.70;100.00;99222.75;8372272;28;20044;-70
2021/12/31 04:11:38;;;;;;;10.38;5.25;;;;;;;10.69;100.00;99229.25;8336216;28;20049;-70
2021/12/31 04:15:39;;;;;;;8.20;4.65;;;;;;;10.69;100.00;99221.16;8347659;28;20045;-70
2021/12/31 04:19:41;;;;;;;8.80;4.25;;;;;;;10.80;100.00;99217.09;8336119;28;20136;-70
2021/12/31 04:23:52;;;;;;;8.68;4.47;;;;;;;10.85;100.00;99214.28;8345663;28;20055;-70
2021/12/31 04:40:08;;;;;;;9.60;4.20;;;;;;;10.85;100.00;99219.69;8510456;27;20426;-71
2021/12/31 04:44:09;;;;;;;8.30;3.58;;;;;;;10.88;100.00;99229.91;8474223;27;20043;-71
2021/12/31 04:48:09;;;;;;;6.88;3.85;;;;;;;10.86;100.00;99226.69;8482201;27;20456;-71
2021/12/31 04:52:10;;;;;;;9.02;3.58;;;;;;;10.85;100.00;99230.50;8482225;27;20193;-71
2021/12/31 04:56:11;;;;;;;10.10;3.83;;;;;;;10.78;100.00;99246.34;8473716;28;20142;-71
2021/12/31 05:00:40;;;;;;;5.25;3.42;;;;;;;10.89;100.00;99242.31;8480245;28;20040;-70
2021/12/31 05:04:40;;;;;;;8.27;3.72;;;;;;;10.90;100.00;99238.47;8471122;27;20402;-71
2021/12/31 05:08:42;;;;;;;14.50;3.38;;;;;;;10.95;100.00;99235.66;8467728;27;20098;-71
2021/12/31 05:12:42;;;;;;;5.28;3.60;;;;;;;10.85;100.00;99241.31;8478234;27;20051;-71
2021/12/31 05:29:20;;;;;;;5.78;3.22;;;;;;;10.98;100.00;99232.34;8381527;27;1325588;-70
2021/12/31 05:33:21;;;;;;;7.18;2.65;;;;;;;10.94;100.00;99242.19;8423350;28;20071;-69
2021/12/31 05:37:24;;;;;;;6.10;3.25;;;;;;;10.92;100.00;99241.69;8396425;28;20139;-69
2021/12/31 05:41:25;;;;;;;6.13;3.08;;;;;;;10.87;100.00;99244.50;8410890;28;20487;-70
2021/12/31 05:45:26;;;;;;;5.22;3.10;;;;;;;10.83;100.00;99243.53;8397585;28;20152;-70
2021/12/31 05:49:28;;;;;;;4.30;3.08;;;;;;;10.87;100.00;99249.91;8421412;28;20052;-69
2021/12/31 05:53:36;;;;;;;7.53;2.92;;;;;;;10.87;100.00;99245.31;8403630;28;20055;-69
2021/12/31 05:57:37;;;;;;;5.05;3.15;;;;;;;10.93;100.00;99259.50;8396771;28;20102;-69
2021/12/31 06:01:38;;;;;;;5.40;3.30;;;;;;;10.87;100.00;99249.91;8414437;28;20139;-71
2021/12/31 06:05:39;;;;;;;5.30;3.00;;;;;;;10.93;100.00;99254.88;8353800;28;20049;-71
2021/12/31 06:09:39;;;;;;;7.45;3.33;;;;;;;10.85;100.00;99247.50;8395855;28;20130;-71
2021/12/31 06:13:43;;;;;;;4.93;2.60;;;;;;;10.85;100.00;99257.50;8413652;28;20040;-68
2021/12/31 06:17:44;;;;;;;4.40;2.85;;;;;;;10.81;100.00;99251.94;8413103;28;20067;-69
2021/12/31 06:21:46;;;;;;;7.28;3.17;;;;;;;10.79;100.00;99253.31;8403895;28;20040;-70
2021/12/31 06:25:46;;;;;;;6.65;2.50;;;;;;;10.78;100.00;99262.56;8413290;28;20063;-70
2021/12/31 06:29:47;;;;;;;4.70;2.50;;;;;;;10.89;100.00;99266.63;8401878;28;20052;-69
2021/12/31 06:33:48;;;;;;;5.22;2.40;;;;;;;10.96;100.00;99264.28;8391128;28;20111;-70
2021/12/31 06:37:51;;;;;;;2.95;2.25;;;;;;;10.95;100.00;99260.78;8367633;28;20049;-70
2021/12/31 06:41:52;;;;;;;3.78;2.20;;;;;;;10.88;100.00;99267.72;8353214;28;20098;-70
2021/12/31 06:45:53;;;;;;;5.80;2.45;;;;;;;10.78;100.00;99267.97;8389470;28;20064;-69
2021/12/31 06:49:54;;;;;;;4.95;2.30;;;;;;;10.85;100.00;99276.41;8396594;28;20479;-70
2021/12/31 06:53:55;;;;;;;5.22;2.20;;;;;;;10.82;100.00;99274.34;8390621;28;20135;-70
2021/12/31 06:57:56;;;;;;;3.95;2.10;;;;;;;10.85;100.00;99279.13;8394805;28;20083;-70
2021/12/31 07:01:57;;;;;;;3.42;2.08;;;;;;;10.89;100.00;99290.94;8398408;28;20052;-70
2021/12/31 07:05:58;;;;;;;4.55;2.05;;;;;;;10.89;100.00;99296.34;8390091;28;20071;-69
2021/12/31 07:09:59;;;;;;;3.67;2.45;;;;;;;10.99;100.00;99301.50;8390026;28;20052;-70
2021/12/31 07:14:00;;;;;;;6.72;2.53;;;;;;;10.91;100.00;99296.81;8386320;28;20141;-70
2021/12/31 07:18:01;;;;;;;4.93;2.30;;;;;;;10.94;100.00;99293.53;8397955;28;20457;-70
2021/12/31 07:22:01;;;;;;;6.60;2.33;;;;;;;11.02;100.00;99306.28;8397926;28;20049;-69
2021/12/31 07:26:03;;;;;;;2.78;1.95;;;;;;;10.99;100.00;99301.50;8388709;28;20037;-69
2021/12/31 07:30:04;;;;;;;5.32;2.20;;;;;;;11.02;100.00;99311.69;8394824;28;20067;-69
2021/12/31 07:34:05;;;;;;;5.43;2.00;;;;;;;11.00;100.00;99313.88;8370428;28;20540;-69
2021/12/31 07:38:06;;;;;;;4.32;1.98;;;;;;;11.08;100.00;99321.28;8378039;28;20094;-70
2021/12/31 07:42:07;;;;;;;2.78;1.90;;;;;;;11.09;100.00;99305.88;8348641;28;20052;-68
2021/12/31 07:46:07;;;;;;;2.92;1.90;;;;;;;11.06;100.00;99312.66;8383555;28;20080;-69
2021/12/31 07:50:08;;;;;;;3.28;1.80;;;;;;;11.10;100.00;99319.09;8395637;28;20056;-69
2021/12/31 07:54:10;;;;;;;9.70;2.30;;;;;;;11.19;100.00;99328.03;8394743;28;20044;-70
2021/12/31 07:58:11;;;;;;;3.95;2.03;;;;;;;11.14;100.00;99330.88;8391636;28;20045;-70
2021/12/31 08:02:12;;;;;;;3.20;2.33;;;;;;;11.13;100.00;99323.88;8388136;28;20052;-69
2021/12/31 08:06:13;;;;;;;5.20;2.13;;;;;;;11.19;100.00;99344.25;8394996;28;20110;-69
2021/12/31 08:10:13;;;;;;;3.17;1.98;;;;;;;11.21;100.00;99325.81;8386547;28;20133;-70
2021/12/31 08:14:14;;;;;;;4.72;2.28;;;;;;;11.31;100.00;99336.41;8395097;28;20048;-70
2021/12/31 08:18:15;;;;;;;10.52;2.35;;;;;;;11.37;99.55;99327.03;8393567;28;20086;-70
2021/12/31 08:22:16;;;;;;;4.57;1.73;;;;;;;11.34;99.11;99319.56;8377913;28;20568;-70
2021/12/31 08:26:17;;;;;;;4.25;1.73;;;;;;;11.41;98.38;99336.16;8391044;28;20060;-68
2021/12/31 08:30:18;;;;;;;3.50;1.80;;;;;;;11.42;98.18;99321.50;8373923;28;20549;-69
2021/12/31 08:34:19;;;;;;;3.45;1.80;;;;;;;11.43;98.45;99316.91;8390019;28;20114;-69
2021/12/31 08:38:20;;;;;;;5.57;1.92;;;;;;;11.43;98.34;99328.53;8375915;28;20495;-69
2021/12/31 08:42:21;;;;;;;5.70;2.00;;;;;;;11.50;97.94;99316.47;8391967;28;20102;-68
2021/12/31 08:46:22;;;;;;;3.22;1.67;;;;;;;11.55;97.43;99324.44;8392597;28;20072;-70
2021/12/31 08:50:22;;;;;;;2.92;2.00;;;;;;;11.65;96.07;99310.66;8376706;28;20048;-70
2021/12/31 08:54:23;;;;;;;2.70;1.60;;;;;;;11.59;96.22;99325.41;8384888;28;20045;-70
2021/12/31 08:58:24;;;;;;;2.70;1.58;;;;;;;11.64;94.89;99322.59;8388795;28;20051;-70
2021/12/31 09:02:25;;;;;;;6.50;1.60;;;;;;;11.65;94.26;99318.78;8386707;28;20057;-69
2021/12/31 09:06:26;;;;;;;3.72;1.80;;;;;;;11.60;94.99;99311.59;8392328;28;20158;-70
2021/12/31 09:10:28;;;;;;;5.28;1.60;;;;;;;11.66;94.33;99314.97;8370947;28;20053;-70
2021/12/31 09:14:29;;;;;;;5.03;2.00;;;;;;;11.68;94.23;99318.19;8389063;28;20087;-69
2021/12/31 09:18:30;;;;;;;3.85;1.67;;;;;;;11.74;92.96;99325.06;8383557;28;20045;-69
2021/12/31 09:22:31;;;;;;;6.28;1.73;;;;;;;11.65;93.71;99321.47;8385061;28;20055;-70
2021/12/31 09:26:32;;;;;;;4.13;1.90;;;;;;;11.59;94.15;99325.41;8391023;28;20076;-69
2021/12/31 09:30:32;;;;;;;5.40;2.17;;;;;;;11.64;93.57;99328.00;8383309;28;20135;-70
2021/12/31 09:34:34;;;;;;;13.48;3.22;;;;;;;11.65;93.36;99324.19;8383140;28;20068;-70
2021/12/31 09:38:35;;;;;;;7.55;2.88;;;;;;;11.65;93.20;99318.78;8388082;28;20055;-69
2021/12/31 09:42:36;;;;;;;7.47;1.88;;;;;;;11.77;91.84;99310.91;8287725;28;20049;-68
2021/12/31 09:46:37;;;;;;;3.38;1.65;;;;;;;11.72;92.64;99308.31;8257741;28;20120;-69
2021/12/31 09:50:43;;;;;;;3.60;1.42;;;;;;;11.73;92.39;99315.38;8289526;28;20073;-68
2021/12/31 09:54:46;;;;;;;3.85;1.58;;;;;;;11.71;92.69;99318.34;8263649;28;20053;-69
2021/12/31 09:58:47;;;;;;;4.43;1.88;;;;;;;11.81;91.90;99322.72;8268828;28;20046;-68
2021/12/31 10:03:13;;;;;;;9.60;2.50;;;;;;;11.82;91.90;99308.06;8243518;28;20710;-69
2021/12/31 10:07:20;;;;;;;5.68;2.47;;;;;;;11.90;90.81;99299.19;8243156;28;20069;-69
2021/12/31 10:11:24;;;;;;;7.20;2.40;;;;;;;11.88;90.61;99306.84;8296447;28;20061;-69
2021/12/31 10:15:26;;;;;;;4.97;2.30;;;;;;;11.88;90.94;99306.03;8291550;28;20058;-68
2021/12/31 10:19:27;;;;;;;6.72;2.65;;;;;;;12.01;89.38;99294.28;8347917;28;20062;-69
2021/12/31 10:23:28;;;;;;;10.05;2.70;;;;;;;12.10;89.10;99293.22;8344516;28;20702;-69
2021/12/31 10:27:29;;;;;;;5.40;2.30;;;;;;;12.05;89.50;99289.88;8291005;28;20075;-72
2021/12/31 10:31:30;;;;;;;4.75;2.25;;;;;;;12.07;89.16;99293.03;8397965;28;20127;-70
2021/12/31 10:35:40;;;;;;;6.25;2.67;;;;;;;12.09;89.10;99297.03;8370470;28;20048;-70
2021/12/31 10:39:41;;;;;;;3.67;2.22;;;;;;;12.00;89.62;99298.91;8390606;28;20041;-70
2021/12/31 10:43:42;;;;;;;4.97;2.53;;;;;;;11.92;90.72;99296.97;8381375;28;20575;-69
2021/12/31 10:47:43;;;;;;;5.78;2.50;;;;;;;12.04;89.24;99283.66;8371688;28;20072;-69
2021/12/31 10:51:46;;;;;;;6.50;2.60;;;;;;;12.03;89.71;99282.06;8393834;28;20087;-70
2021/12/31 10:55:49;;;;;;;5.90;2.65;;;;;;;12.08;89.06;99260.25;8378548;28;20048;-70
2021/12/31 10:59:50;;;;;;;9.60;2.30;;;;;;;12.12;89.53;99274.75;8389166;28;20040;-70
2021/12/31 11:03:52;;;;;;;6.78;2.65;;;;;;;12.26;88.68;99274.63;8388564;28;20060;-70
2021/12/31 11:07:53;;;;;;;8.18;2.70;;;;;;;12.37;88.08;99265.09;8398180;28;20049;-70
2021/12/31 11:11:55;;;;;;;6.07;2.55;;;;;;;12.44;87.18;99270.03;8389458;28;20045;-70
2021/12/31 11:15:58;;;;;;;5.93;2.53;;;;;;;12.39;86.76;99278.31;8379685;28;20476;-69
2021/12/31 11:20:00;;;;;;;6.20;2.63;;;;;;;12.44;86.55;99264.63;8388097;28;20449;-71
2021/12/31 11:24:30;;;;;;;7.88;2.75;;;;;;;12.48;86.14;99252.03;8397636;28;20052;-70
2021/12/31 11:28:37;;;;;;;7.03;2.78;;;;;;;12.44;86.48;99254.59;8392204;28;20115;-69
2021/12/31 11:33:00;;;;;;;5.80;2.50;;;;;;;12.53;85.20;99251.91;8397219;28;20090;-69
2021/12/31 11:37:02;;;;;;;8.48;2.65;;;;;;;12.50;85.14;99253.31;8393242;28;20045;-70
2021/12/31 11:41:05;;;;;;;5.18;2.30;;;;;;;12.44;86.16;99253.78;8386268;28;20072;-70
2021/12/31 11:45:07;;;;;;;5.53;2.20;;;;;;;12.42;85.87;99250.63;8392160;28;20495;-69
2021/12/31 11:49:10;;;;;;;5.82;2.63;;;;;;;12.44;85.25;99242.94;8389470;28;20124;-69
2021/12/31 11:53:13;;;;;;;4.57;1.73;;;;;;;12.52;83.86;99239.47;8389383;28;20057;-70
2021/12/31 11:57:20;;;;;;;4.25;2.38;;;;;;;12.53;84.10;99235.66;8368316;28;20060;-70
2021/12/31 12:01:36;;;;;;;3.60;1.98;;;;;;;12.45;83.97;99233.72;8386483;28;20057;-70
2021/12/31 12:05:41;;;;;;;4.07;1.75;;;;;;;12.43;84.13;99235.94;8389496;28;20049;-69
2021/12/31 12:09:42;;;;;;;5.60;2.45;;;;;;;12.38;84.25;99222.53;8393297;28;20052;-70
2021/12/31 12:13:43;;;;;;;7.60;2.78;;;;;;;12.37;84.29;99220.97;8392591;28;20198;-70
2021/12/31 12:17:45;;;;;;;6.70;2.50;;;;;;;12.38;84.18;99219.84;8388490;28;20495;-70
2021/12/31 12:21:52;;;;;;;5.35;2.38;;;;;;;12.34;84.38;99216.19;8389868;28;20166;-69
2021/12/31 12:25:53;;;;;;;10.02;3.70;;;;;;;12.37;83.83;99210.16;8393039;28;20067;-70
2021/12/31 12:29:57;;;;;;;7.60;3.70;;;;;;;12.35;83.90;99210.44;8385173;28;20052;-68
2021/12/31 12:33:58;;;;;;;7.57;3.22;;;;;;;12.40;83.62;99198.66;8393789;28;20041;-69
2021/12/31 12:38:11;;;;;;;5.03;2.80;;;;;;;12.29;84.04;99198.19;8332996;28;20036;-69
2021/12/31 12:42:12;;;;;;;8.00;3.45;;;;;;;12.32;83.67;99204.88;8393193;28;20102;-70
2021/12/31 12:46:16;;;;;;;9.23;3.28;;;;;;;12.33;83.48;99203.75;8393888;28;20131;-70
2021/12/31 12:50:17;;;;;;;9.02;3.03;;;;;;;12.33;83.67;99198.31;8388768;28;20052;-71
2021/12/31 12:54:22;;;;;;;9.63;3.63;;;;;;;12.34;83.24;99197.22;8388998;28;20068;-70
2021/12/31 12:58:24;;;;;;;6.68;2.90;;;;;;;12.29;83.22;99198.19;8389436;28;20183;-71
2021/12/31 13:02:42;;;;;;;7.70;3.13;;;;;;;12.30;82.99;99188.16;8393006;28;20407;-72
2021/12/31 13:06:53;;;;;;;11.52;2.92;;;;;;;12.34;82.22;99189.09;8389515;28;20059;-71
2021/12/31 13:10:54;;;;;;;7.68;2.90;;;;;;;12.32;82.06;99196.75;8340169;28;20148;-71
2021/12/31 13:14:58;;;;;;;7.28;3.20;;;;;;;12.26;82.29;99194.22;8392900;28;20415;-70
2021/12/31 13:19:05;;;;;;;9.13;3.55;;;;;;;12.31;81.77;99192.44;8393474;28;20506;-70
2021/12/31 13:23:08;;;;;;;7.93;2.50;;;;;;;12.38;80.86;99190.03;8376074;28;20136;-71
2021/12/31 13:27:10;;;;;;;6.43;3.05;;;;;;;12.41;80.83;99189.44;8386543;28;20071;-71
2021/12/31 13:31:12;;;;;;;8.57;3.47;;;;;;;12.45;80.33;99184.97;8384413;28;20143;-71
2021/12/31 13:35:13;;;;;;;8.85;3.70;;;;;;;12.36;81.03;99193.09;8388771;28;20143;-71
2021/12/31 13:39:17;;;;;;;7.18;3.28;;;;;;;12.33;81.16;99199.13;8392215;28;20106;-71
2021/12/31 13:43:24;;;;;;;7.90;3.50;;;;;;;12.27;81.42;99201.19;8387598;28;20095;-71
2021/12/31 13:47:26;;;;;;;9.93;5.90;;;;;;;12.23;81.70;99194.81;8387723;28;20048;-72
2021/12/31 13:51:29;;;;;;;8.48;4.00;;;;;;;12.20;82.06;99195.47;8396469;28;20056;-72
2021/12/31 13:55:31;;;;;;;7.20;3.05;;;;;;;12.15;82.21;99187.50;8394393;28;20053;-72
2021/12/31 13:59:40;;;;;;;9.90;3.53;;;;;;;12.14;82.17;99196.72;8353916;28;20400;-72
2021/12/31 14:03:41;;;;;;;8.07;3.47;;;;;;;12.19;81.89;99188.47;8327879;28;20049;-72
2021/12/31 14:08:08;;;;;;;11.52;5.15;;;;;;;12.12;82.19;99182.69;8325869;28;20633;-73
2021/12/31 14:12:10;;;;;;;9.88;3.88;;;;;;;12.09;82.68;99188.75;8378542;28;20044;-73
2021/12/31 14:16:12;;;;;;;8.75;3.92;;;;;;;12.12;82.24;99193.53;8393606;28;20055;-73
2021/12/31 14:20:15;;;;;;;10.27;4.28;;;;;;;12.22;81.54;99187.81;8342489;28;20136;-72
2021/12/31 14:24:18;;;;;;;11.35;4.60;;;;;;;12.14;82.02;99190.53;8326123;28;20049;-71
2021/12/31 14:28:19;;;;;;;9.45;4.38;;;;;;;12.17;81.70;99185.25;8373274;28;20057;-72
2021/12/31 14:32:19;;;;;;;11.65;4.10;;;;;;;12.24;81.04;99196.41;8385430;28;20570;-72
2021/12/31 14:36:22;;;;;;;11.95;3.88;;;;;;;12.23;80.74;99194.81;8391393;28;20045;-72
2021/12/31 14:40:24;;;;;;;10.98;4.07;;;;;;;12.39;79.48;99187.03;8356074;28;20049;-72
2021/12/31 14:44:25;;;;;;;9.60;4.32;;;;;;;12.43;78.83;99192.59;8394940;28;20044;-71
2021/12/31 14:48:26;;;;;;;9.70;3.95;;;;;;;12.48;78.47;99197.84;8392676;28;20510;-72
2021/12/31 14:52:28;;;;;;;8.60;4.00;;;;;;;12.50;78.41;99192.94;8395929;28;20040;-73
2021/12/31 14:56:30;;;;;;;11.45;4.10;;;;;;;12.56;77.96;99186.22;8361838;28;20507;-72
2021/12/31 15:00:31;;;;;;;8.90;3.97;;;;;;;12.57;77.40;99177.00;8395806;28;20155;-71
2021/12/31 15:04:32;;;;;;;10.63;3.55;;;;;;;12.50;77.81;99184.81;8294066;28;20049;-70
2021/12/31 15:08:32;;;;;;;8.90;4.53;;;;;;;12.54;77.59;99177.63;8294047;28;20050;-70
2021/12/31 15:12:34;;;;;;;8.90;4.78;;;;;;;12.51;77.31;99183.69;8293645;28;20556;-74
2021/12/31 15:16:35;;;;;;;10.23;5.10;;;;;;;12.47;77.70;99171.91;8293523;28;20192;-74
2021/12/31 15:20:38;;;;;;;11.07;3.45;;;;;;;12.49;77.32;99175.88;8259771;28;20102;-74
2021/12/31 15:24:39;;;;;;;10.32;4.15;;;;;;;12.46;77.58;99175.72;8293360;28;20045;-75
2021/12/31 15:28:40;;;;;;;15.75;7.82;;;;;;;12.43;77.87;99170.94;8285052;28;20136;-74
2021/12/31 15:32:41;;;;;;;9.38;3.97;;;;;;;12.42;77.42;99180.19;8291692;28;20056;-73
2021/12/31 15:36:42;;;;;;;9.27;4.50;;;;;;;12.33;78.10;99179.38;8366110;28;20049;-74
2021/12/31 15:40:45;;;;;;;19.02;7.55;;;;;;;12.31;78.05;99173.50;8357122;28;20053;-72
2021/12/31 15:44:46;;;;;;;11.52;4.18;;;;;;;12.35;77.79;99174.44;8357204;28;20393;-72
2021/12/31 15:48:47;;;;;;;8.48;3.47;;;;;;;12.36;77.32;99171.44;8341376;28;20041;-72
2021/12/31 15:52:48;;;;;;;15.35;3.65;;;;;;;12.30;77.48;99161.88;8362073;28;20420;-72
2021/12/31 15:56:49;;;;;;;11.18;4.53;;;;;;;12.35;77.18;99163.63;8358785;28;20037;-73
2021/12/31 16:00:50;;;;;;;8.80;4.30;;;;;;;12.35;77.42;99163.63;8356853;28;20072;-73
2021/12/31 16:04:51;;;;;;;11.13;5.72;;;;;;;12.30;77.56;99161.06;8345133;28;20495;-73
2021/12/31 16:08:54;;;;;;;9.18;3.67;;;;;;;12.20;78.05;99157.56;8356773;28;20685;-75
2021/12/31 16:12:55;;;;;;;12.18;5.20;;;;;;;12.28;77.16;99153.25;8359647;28;20045;-73
2021/12/31 16:16:56;;;;;;;11.55;5.07;;;;;;;12.33;77.17;99155.00;8359082;28;20051;-74
2021/12/31 16:20:57;;;;;;;15.48;5.00;;;;;;;12.36;76.88;99154.38;8360970;28;20639;-74
2021/12/31 16:24:59;;;;;;;14.15;5.80;;;;;;;12.34;76.76;99145.75;8341363;28;20122;-74
2021/12/31 16:29:00;;;;;;;16.45;5.47;;;;;;;12.37;76.58;99131.59;8373317;28;20052;-73
2021/12/31 16:33:00;;;;;;;15.40;5.93;;;;;;;12.39;76.29;99140.19;8393930;28;20076;-72
2021/12/31 16:37:02;;;;;;;12.38;5.97;;;;;;;12.42;76.11;99136.84;8393929;28;20086;-74
2021/12/31 16:41:02;;;;;;;14.98;5.80;;;;;;;12.33;76.49;99133.34;8385684;28;20044;-73
2021/12/31 16:45:04;;;;;;;13.73;5.20;;;;;;;12.36;76.21;99121.88;8392848;28;20044;-72
2021/12/31 16:49:08;;;;;;;14.15;4.60;;;;;;;12.37;75.89;99128.91;8344844;28;20496;-73
2021/12/31 16:53:09;;;;;;;10.35;4.13;;;;;;;12.30;76.29;99117.75;8392830;28;20055;-73
2021/12/31 16:57:10;;;;;;;13.25;5.60;;;;;;;12.34;75.99;99118.69;8391632;28;20049;-74
2021/12/31 17:01:10;;;;;;;11.98;5.57;;;;;;;12.31;75.96;99103.09;8387429;28;20056;-74
2021/12/31 17:05:12;;;;;;;15.15;6.03;;;;;;;12.26;76.41;99102.16;8392816;28;20553;-74
2021/12/31 17:09:14;;;;;;;10.18;4.95;;;;;;;12.19;76.68;99090.19;8338194;28;20057;-76
2021/12/31 17:13:15;;;;;;;11.93;5.10;;;;;;;12.17;76.79;99098.63;8382150;28;20094;-74
2021/12/31 17:17:16;;;;;;;11.07;5.05;;;;;;;12.22;76.44;99101.16;8291247;28;20124;-76
2021/12/31 17:21:17;;;;;;;13.27;5.50;;;;;;;12.24;76.19;99120.59;8262036;28;20085;-74
2021/12/31 17:25:18;;;;;;;15.68;6.13;;;;;;;12.24;76.26;99114.41;8290188;28;20042;-75
2021/12/31 17:29:21;;;;;;;13.00;5.47;;;;;;;12.28;75.98;99105.31;8284732;28;20054;-75
2021/12/31 17:33:22;;;;;;;10.15;4.75;;;;;;;12.26;75.97;99107.56;8285950;28;20573;-75
2021/12/31 17:37:23;;;;;;;10.48;4.32;;;;;;;12.20;76.12;99108.84;8286864;28;20053;-74
2021/12/31 17:41:24;;;;;;;13.48;5.50;;;;;;;12.23;75.97;99119.00;8290403;28;20500;-75
2021/12/31 17:45:26;;;;;;;14.60;6.18;;;;;;;12.20;76.15;99119.66;8282074;28;20412;-75
2021/12/31 17:49:27;;;;;;;15.40;7.03;;;;;;;12.17;76.18;99114.88;8287348;28;20142;-75
2021/12/31 17:53:27;;;;;;;15.05;6.07;;;;;;;12.19;75.88;99107.22;8309328;28;20052;-74
2021/12/31 17:57:28;;;;;;;12.50;5.72;;;;;;;12.20;76.15;99108.03;8356805;28;20069;-74
2021/12/31 18:01:29;;;;;;;12.63;5.85;;;;;;;12.16;76.18;99105.16;8351530;28;20076;-76
2021/12/31 18:05:30;;;;;;;15.85;5.97;;;;;;;12.13;76.43;99119.34;8356582;28;20077;-74
2021/12/31 18:09:31;;;;;;;17.48;5.97;;;;;;;12.09;76.70;99123.81;8354122;28;20045;-75
2021/12/31 18:13:32;;;;;;;19.17;6.38;;;;;;;12.17;76.52;99125.69;8357193;28;20055;-75
2021/12/31 18:17:33;;;;;;;10.20;5.00;;;;;;;12.25;76.44;99116.78;8355942;28;20053;-77
2021/12/31 18:21:34;;;;;;;17.73;6.75;;;;;;;12.40;75.58;99112.00;8339895;28;20132;-76
2021/12/31 18:25:38;;;;;;;10.15;3.85;;;;;;;12.44;75.59;99123.78;8352228;28;20063;-74
2021/12/31 18:29:42;;;;;;;8.15;3.78;;;;;;;12.45;75.54;99125.38;8357381;28;20059;-75
2021/12/31 18:33:42;;;;;;;10.00;3.92;;;;;;;12.50;75.28;99127.91;8362964;28;20085;-76
2021/12/31 18:37:44;;;;;;;11.85;4.60;;;;;;;12.39;75.87;99118.53;8356102;28;20048;-76
2021/12/31 18:41:44;;;;;;;10.55;4.25;;;;;;;12.43;75.75;99117.56;8348024;28;20107;-75
2021/12/31 18:45:45;;;;;;;11.52;3.85;;;;;;;12.38;75.77;99097.97;8347527;28;20752;-76
2021/12/31 18:50:00;;;;;;;9.90;4.55;;;;;;;12.36;76.30;99111.06;8352230;28;20041;-75
2021/12/31 18:54:00;;;;;;;11.85;4.90;;;;;;;12.30;76.59;99112.31;8353177;28;20052;-74
2021/12/31 18:58:01;;;;;;;10.15;4.25;;;;;;;12.23;76.97;99108.19;8317366;28;20120;-75
2021/12/31 19:02:02;;;;;;;10.95;4.30;;;;;;;12.36;76.30;99108.34;8360721;28;20072;-75
2021/12/31 19:06:03;;;;;;;8.57;3.40;;;;;;;12.42;75.93;99109.78;8360750;28;20142;-75
2021/12/31 19:10:05;;;;;;;7.38;3.83;;;;;;;12.43;75.86;99119.47;8359189;28;20040;-75
2021/12/31 19:14:06;;;;;;;8.70;3.70;;;;;;;12.41;75.91;99114.41;8359828;28;20045;-74
2021/12/31 19:18:07;;;;;;;10.77;3.92;;;;;;;12.32;76.21;99116.28;8357720;28;20049;-72
2021/12/31 19:22:07;;;;;;;7.32;3.08;;;;;;;12.38;76.05;99108.81;8350071;28;20191;-72
2021/12/31 19:26:09;;;;;;;8.63;3.60;;;;;;;12.48;75.48;99113.88;8350666;28;20412;-71
2021/12/31 19:30:10;;;;;;;7.43;3.70;;;;;;;12.43;75.83;99116.75;8393401;28;20045;-71
2021/12/31 19:34:11;;;;;;;10.23;3.95;;;;;;;12.43;75.97;99127.59;8392192;28;20068;-73
2021/12/31 19:38:12;;;;;;;10.70;4.28;;;;;;;12.40;76.87;99128.25;8380911;28;20104;-82
2021/12/31 19:42:13;;;;;;;10.82;4.35;;;;;;;12.25;80.50;99138.47;8389820;28;20055;-77
2021/12/31 19:46:14;;;;;;;6.93;3.67;;;;;;;11.94;84.89;99132.38;8392156;28;20067;-76